sensor_id;sensor_type;location;lat;lon;timestamp;P1;durP1;ratioP1;P2;durP2;ratioP2
64235;SDS011;50564;47.402;9.740;2023-07-13T00:00:35;8.07;;;4.38;;
64235;SDS011;50564;47.402;9.740;2023-07-13T00:05:36;4.90;;;3.33;;
64235;SDS011;50564;47.402;9.740;2023-07-13T00:10:40;6.50;;;3.25;;
64235;SDS011;50564;47.402;9.740;2023-07-13T00:15:42;5.38;;;3.28;;
64235;SDS011;50564;47.402;9.740;2023-07-13T00:20:42;4.13;;;2.88;;
64235;SDS011;50564;47.402;9.740;2023-07-13T00:25:43;8.38;;;3.50;;
64235;SDS011;50564;47.402;9.740;2023-07-13T00:30:44;7.07;;;3.75;;
64235;SDS011;50564;47.402;9.740;2023-07-13T00:35:46;5.70;;;3.25;;
64235;SDS011;50564;47.402;9.740;2023-07-13T00:40:48;6.28;;;3.05;;
64235;SDS011;50564;47.402;9.740;2023-07-13T00:50:50;4.55;;;3.35;;
64235;SDS011;50564;47.402;9.740;2023-07-13T00:55:53;8.40;;;3.55;;
64235;SDS011;50564;47.402;9.740;2023-07-13T01:00:54;6.30;;;4.07;;
64235;SDS011;50564;47.402;9.740;2023-07-13T01:05:55;6.03;;;3.40;;
64235;SDS011;50564;47.402;9.740;2023-07-13T01:10:56;4.78;;;2.97;;
64235;SDS011;50564;47.402;9.740;2023-07-13T01:15:58;4.85;;;3.30;;
64235;SDS011;50564;47.402;9.740;2023-07-13T01:21:04;6.13;;;2.97;;
64235;SDS011;50564;47.402;9.740;2023-07-13T01:26:05;6.60;;;3.10;;
64235;SDS011;50564;47.402;9.740;2023-07-13T01:31:06;5.32;;;3.58;;
64235;SDS011;50564;47.402;9.740;2023-07-13T01:36:08;4.55;;;3.50;;
64235;SDS011;50564;47.402;9.740;2023-07-13T01:41:11;6.13;;;3.55;;
64235;SDS011;50564;47.402;9.740;2023-07-13T01:46:12;5.72;;;3.67;;
64235;SDS011;50564;47.402;9.740;2023-07-13T01:51:15;9.40;;;4.05;;
64235;SDS011;50564;47.402;9.740;2023-07-13T01:56:16;7.90;;;3.70;;
64235;SDS011;50564;47.402;9.740;2023-07-13T02:01:17;6.80;;;3.65;;
64235;SDS011;50564;47.402;9.740;2023-07-13T02:06:18;4.95;;;3.33;;
64235;SDS011;50564;47.402;9.740;2023-07-13T02:11:18;5.18;;;3.17;;
64235;SDS011;50564;47.402;9.740;2023-07-13T02:16:19;6.03;;;3.58;;
64235;SDS011;50564;47.402;9.740;2023-07-13T02:21:19;7.72;;;3.13;;
64235;SDS011;50564;47.402;9.740;2023-07-13T02:26:20;7.65;;;3.95;;
64235;SDS011;50564;47.402;9.740;2023-07-13T02:31:21;5.85;;;3.55;;
64235;SDS011;50564;47.402;9.740;2023-07-13T02:36:22;6.72;;;2.88;;
64235;SDS011;50564;47.402;9.740;2023-07-13T02:41:23;5.88;;;3.50;;
64235;SDS011;50564;47.402;9.740;2023-07-13T02:46:23;3.95;;;3.03;;
64235;SDS011;50564;47.402;9.740;2023-07-13T02:51:26;6.60;;;3.63;;
64235;SDS011;50564;47.402;9.740;2023-07-13T02:56:27;6.70;;;3.90;;
64235;SDS011;50564;47.402;9.740;2023-07-13T03:01:29;5.28;;;3.60;;
64235;SDS011;50564;47.402;9.740;2023-07-13T03:06:30;7.45;;;4.07;;
64235;SDS011;50564;47.402;9.740;2023-07-13T03:11:32;7.22;;;3.80;;
64235;SDS011;50564;47.402;9.740;2023-07-13T03:16:49;5.80;;;3.43;;
64235;SDS011;50564;47.402;9.740;2023-07-13T03:21:51;5.80;;;3.67;;
64235;SDS011;50564;47.402;9.740;2023-07-13T03:26:52;6.05;;;3.40;;
64235;SDS011;50564;47.402;9.740;2023-07-13T03:31:53;5.15;;;3.38;;
64235;SDS011;50564;47.402;9.740;2023-07-13T03:36:56;6.13;;;2.92;;
64235;SDS011;50564;47.402;9.740;2023-07-13T03:41:57;6.72;;;3.30;;
64235;SDS011;50564;47.402;9.740;2023-07-13T03:46:57;6.22;;;4.07;;
64235;SDS011;50564;47.402;9.740;2023-07-13T03:51:58;11.75;;;4.43;;
64235;SDS011;50564;47.402;9.740;2023-07-13T03:56:59;4.53;;;3.42;;
64235;SDS011;50564;47.402;9.740;2023-07-13T04:02:01;6.57;;;4.55;;
64235;SDS011;50564;47.402;9.740;2023-07-13T04:07:07;5.95;;;3.50;;
64235;SDS011;50564;47.402;9.740;2023-07-13T04:12:13;5.25;;;3.40;;
64235;SDS011;50564;47.402;9.740;2023-07-13T04:17:16;8.68;;;3.88;;
64235;SDS011;50564;47.402;9.740;2023-07-13T04:22:17;5.95;;;3.53;;
64235;SDS011;50564;47.402;9.740;2023-07-13T04:27:18;7.32;;;3.55;;
64235;SDS011;50564;47.402;9.740;2023-07-13T04:32:18;6.15;;;3.67;;
64235;SDS011;50564;47.402;9.740;2023-07-13T04:37:19;6.93;;;3.53;;
64235;SDS011;50564;47.402;9.740;2023-07-13T04:42:20;6.28;;;3.63;;
64235;SDS011;50564;47.402;9.740;2023-07-13T04:47:21;9.65;;;4.07;;
64235;SDS011;50564;47.402;9.740;2023-07-13T04:52:21;7.78;;;4.25;;
64235;SDS011;50564;47.402;9.740;2023-07-13T04:57:22;6.32;;;3.45;;
64235;SDS011;50564;47.402;9.740;2023-07-13T05:02:23;6.63;;;3.97;;
64235;SDS011;50564;47.402;9.740;2023-07-13T05:07:24;6.82;;;3.42;;
64235;SDS011;50564;47.402;9.740;2023-07-13T05:12:26;5.45;;;3.40;;
64235;SDS011;50564;47.402;9.740;2023-07-13T05:17:27;5.20;;;3.08;;
64235;SDS011;50564;47.402;9.740;2023-07-13T05:22:27;8.80;;;3.88;;
64235;SDS011;50564;47.402;9.740;2023-07-13T05:27:28;6.93;;;4.57;;
64235;SDS011;50564;47.402;9.740;2023-07-13T05:32:28;7.97;;;3.88;;
64235;SDS011;50564;47.402;9.740;2023-07-13T05:37:29;6.43;;;3.95;;
64235;SDS011;50564;47.402;9.740;2023-07-13T05:42:30;6.78;;;3.70;;
64235;SDS011;50564;47.402;9.740;2023-07-13T05:47:31;5.40;;;3.90;;
64235;SDS011;50564;47.402;9.740;2023-07-13T05:52:31;6.13;;;4.05;;
64235;SDS011;50564;47.402;9.740;2023-07-13T05:57:32;5.47;;;4.25;;
64235;SDS011;50564;47.402;9.740;2023-07-13T06:02:33;6.05;;;3.97;;
64235;SDS011;50564;47.402;9.740;2023-07-13T06:07:33;6.25;;;3.78;;
64235;SDS011;50564;47.402;9.740;2023-07-13T06:12:34;5.75;;;3.10;;
64235;SDS011;50564;47.402;9.740;2023-07-13T06:17:35;8.43;;;4.43;;
64235;SDS011;50564;47.402;9.740;2023-07-13T06:22:35;5.25;;;4.03;;
64235;SDS011;50564;47.402;9.740;2023-07-13T06:27:36;6.50;;;3.85;;
64235;SDS011;50564;47.402;9.740;2023-07-13T06:32:36;7.05;;;4.00;;
64235;SDS011;50564;47.402;9.740;2023-07-13T06:37:37;7.68;;;3.90;;
64235;SDS011;50564;47.402;9.740;2023-07-13T06:42:37;4.82;;;3.20;;
64235;SDS011;50564;47.402;9.740;2023-07-13T06:47:38;5.32;;;3.20;;
64235;SDS011;50564;47.402;9.740;2023-07-13T06:52:39;5.43;;;3.70;;
64235;SDS011;50564;47.402;9.740;2023-07-13T06:57:40;6.03;;;3.20;;
64235;SDS011;50564;47.402;9.740;2023-07-13T07:02:40;5.15;;;3.63;;
64235;SDS011;50564;47.402;9.740;2023-07-13T07:07:41;6.47;;;4.60;;
64235;SDS011;50564;47.402;9.740;2023-07-13T07:12:41;6.72;;;4.82;;
64235;SDS011;50564;47.402;9.740;2023-07-13T07:17:42;8.68;;;3.80;;
64235;SDS011;50564;47.402;9.740;2023-07-13T07:22:43;6.15;;;3.08;;
64235;SDS011;50564;47.402;9.740;2023-07-13T07:27:44;5.80;;;3.58;;
64235;SDS011;50564;47.402;9.740;2023-07-13T07:32:45;6.75;;;3.80;;
64235;SDS011;50564;47.402;9.740;2023-07-13T07:37:46;5.65;;;3.25;;
64235;SDS011;50564;47.402;9.740;2023-07-13T07:42:47;7.50;;;4.00;;
64235;SDS011;50564;47.402;9.740;2023-07-13T07:47:47;7.18;;;3.92;;
64235;SDS011;50564;47.402;9.740;2023-07-13T07:52:48;9.25;;;4.40;;
64235;SDS011;50564;47.402;9.740;2023-07-13T07:57:49;6.30;;;4.63;;
64235;SDS011;50564;47.402;9.740;2023-07-13T08:02:49;7.93;;;4.80;;
64235;SDS011;50564;47.402;9.740;2023-07-13T08:07:50;5.82;;;4.00;;
64235;SDS011;50564;47.402;9.740;2023-07-13T08:12:51;6.50;;;3.72;;
64235;SDS011;50564;47.402;9.740;2023-07-13T08:17:52;7.10;;;4.20;;
64235;SDS011;50564;47.402;9.740;2023-07-13T08:22:53;6.40;;;4.07;;
64235;SDS011;50564;47.402;9.740;2023-07-13T08:27:53;7.18;;;4.40;;
64235;SDS011;50564;47.402;9.740;2023-07-13T08:32:54;7.82;;;3.90;;
64235;SDS011;50564;47.402;9.740;2023-07-13T08:37:54;8.05;;;3.65;;
64235;SDS011;50564;47.402;9.740;2023-07-13T08:42:58;7.13;;;3.50;;
64235;SDS011;50564;47.402;9.740;2023-07-13T08:53:05;6.35;;;3.58;;
64235;SDS011;50564;47.402;9.740;2023-07-13T08:58:11;6.00;;;3.60;;
64235;SDS011;50564;47.402;9.740;2023-07-13T09:03:23;5.87;;;3.40;;
64235;SDS011;50564;47.402;9.740;2023-07-13T09:19:11;6.82;;;3.80;;
64235;SDS011;50564;47.402;9.740;2023-07-13T09:24:39;5.75;;;2.92;;
64235;SDS011;50564;47.402;9.740;2023-07-13T09:29:41;3.58;;;2.60;;
64235;SDS011;50564;47.402;9.740;2023-07-13T09:34:53;4.63;;;3.20;;
64235;SDS011;50564;47.402;9.740;2023-07-13T09:39:54;5.15;;;3.00;;
64235;SDS011;50564;47.402;9.740;2023-07-13T09:44:58;6.55;;;2.92;;
64235;SDS011;50564;47.402;9.740;2023-07-13T09:50:00;4.60;;;3.10;;
64235;SDS011;50564;47.402;9.740;2023-07-13T09:55:02;6.40;;;2.80;;
64235;SDS011;50564;47.402;9.740;2023-07-13T10:00:05;6.47;;;3.72;;
64235;SDS011;50564;47.402;9.740;2023-07-13T10:05:18;5.38;;;3.00;;
64235;SDS011;50564;47.402;9.740;2023-07-13T10:10:22;6.35;;;3.00;;
64235;SDS011;50564;47.402;9.740;2023-07-13T10:15:24;6.07;;;2.70;;
64235;SDS011;50564;47.402;9.740;2023-07-13T10:20:26;5.70;;;2.80;;
64235;SDS011;50564;47.402;9.740;2023-07-13T10:25:31;6.80;;;2.85;;
64235;SDS011;50564;47.402;9.740;2023-07-13T10:30:35;3.78;;;2.28;;
64235;SDS011;50564;47.402;9.740;2023-07-13T10:35:36;5.22;;;2.70;;
64235;SDS011;50564;47.402;9.740;2023-07-13T10:40:38;5.43;;;2.95;;
64235;SDS011;50564;47.402;9.740;2023-07-13T10:45:39;5.55;;;2.80;;
64235;SDS011;50564;47.402;9.740;2023-07-13T10:50:40;5.00;;;2.75;;
64235;SDS011;50564;47.402;9.740;2023-07-13T11:16:36;6.97;;;3.30;;
64235;SDS011;50564;47.402;9.740;2023-07-13T11:27:11;4.38;;;2.45;;
64235;SDS011;50564;47.402;9.740;2023-07-13T11:32:39;4.30;;;2.80;;
64235;SDS011;50564;47.402;9.740;2023-07-13T11:37:39;4.25;;;2.30;;
64235;SDS011;50564;47.402;9.740;2023-07-13T11:42:40;3.95;;;2.22;;
64235;SDS011;50564;47.402;9.740;2023-07-13T11:47:42;5.93;;;2.55;;
64235;SDS011;50564;47.402;9.740;2023-07-13T11:52:43;5.68;;;2.38;;
64235;SDS011;50564;47.402;9.740;2023-07-13T12:02:58;5.10;;;2.72;;
64235;SDS011;50564;47.402;9.740;2023-07-13T12:08:07;3.67;;;2.45;;
64235;SDS011;50564;47.402;9.740;2023-07-13T12:13:11;4.32;;;2.40;;
64235;SDS011;50564;47.402;9.740;2023-07-13T12:18:13;3.67;;;2.22;;
64235;SDS011;50564;47.402;9.740;2023-07-13T12:23:32;5.00;;;2.50;;
64235;SDS011;50564;47.402;9.740;2023-07-13T12:28:38;4.90;;;3.42;;
64235;SDS011;50564;47.402;9.740;2023-07-13T12:33:46;4.10;;;2.15;;
64235;SDS011;50564;47.402;9.740;2023-07-13T12:38:47;3.58;;;2.15;;
64235;SDS011;50564;47.402;9.740;2023-07-13T12:49:27;3.72;;;2.25;;
64235;SDS011;50564;47.402;9.740;2023-07-13T12:54:30;3.40;;;2.20;;
64235;SDS011;50564;47.402;9.740;2023-07-13T12:59:31;3.40;;;2.00;;
64235;SDS011;50564;47.402;9.740;2023-07-13T13:04:33;7.07;;;2.53;;
64235;SDS011;50564;47.402;9.740;2023-07-13T13:09:34;4.50;;;2.53;;
64235;SDS011;50564;47.402;9.740;2023-07-13T13:14:35;3.83;;;2.13;;
64235;SDS011;50564;47.402;9.740;2023-07-13T13:19:36;4.93;;;2.50;;
64235;SDS011;50564;47.402;9.740;2023-07-13T13:24:37;3.92;;;2.33;;
64235;SDS011;50564;47.402;9.740;2023-07-13T13:29:38;6.55;;;2.40;;
64235;SDS011;50564;47.402;9.740;2023-07-13T13:34:39;3.65;;;2.22;;
64235;SDS011;50564;47.402;9.740;2023-07-13T13:39:40;2.63;;;2.05;;
64235;SDS011;50564;47.402;9.740;2023-07-13T13:44:41;5.50;;;2.25;;
64235;SDS011;50564;47.402;9.740;2023-07-13T13:49:41;5.35;;;2.40;;
64235;SDS011;50564;47.402;9.740;2023-07-13T13:54:42;4.10;;;2.38;;
64235;SDS011;50564;47.402;9.740;2023-07-13T13:59:43;4.20;;;2.13;;
64235;SDS011;50564;47.402;9.740;2023-07-13T14:04:44;3.13;;;1.85;;
64235;SDS011;50564;47.402;9.740;2023-07-13T14:09:45;4.47;;;2.00;;
64235;SDS011;50564;47.402;9.740;2023-07-13T14:14:45;2.88;;;1.70;;
64235;SDS011;50564;47.402;9.740;2023-07-13T14:19:46;2.92;;;1.95;;
64235;SDS011;50564;47.402;9.740;2023-07-13T14:24:51;2.15;;;1.70;;
64235;SDS011;50564;47.402;9.740;2023-07-13T14:29:54;3.40;;;2.05;;
64235;SDS011;50564;47.402;9.740;2023-07-13T14:34:56;5.03;;;2.10;;
64235;SDS011;50564;47.402;9.740;2023-07-13T14:39:58;2.83;;;1.85;;
64235;SDS011;50564;47.402;9.740;2023-07-13T14:44:59;4.82;;;2.30;;
64235;SDS011;50564;47.402;9.740;2023-07-13T14:50:00;3.65;;;1.88;;
64235;SDS011;50564;47.402;9.740;2023-07-13T14:55:02;4.05;;;2.08;;
64235;SDS011;50564;47.402;9.740;2023-07-13T15:00:03;2.95;;;1.60;;
64235;SDS011;50564;47.402;9.740;2023-07-13T15:05:18;3.03;;;2.22;;
64235;SDS011;50564;47.402;9.740;2023-07-13T15:10:23;4.45;;;2.60;;
64235;SDS011;50564;47.402;9.740;2023-07-13T15:15:26;2.53;;;1.83;;
64235;SDS011;50564;47.402;9.740;2023-07-13T15:20:31;2.85;;;2.08;;
64235;SDS011;50564;47.402;9.740;2023-07-13T15:25:33;3.03;;;2.30;;
64235;SDS011;50564;47.402;9.740;2023-07-13T15:30:41;2.78;;;1.73;;
64235;SDS011;50564;47.402;9.740;2023-07-13T15:36:03;2.78;;;1.60;;
64235;SDS011;50564;47.402;9.740;2023-07-13T15:41:25;3.13;;;1.88;;
64235;SDS011;50564;47.402;9.740;2023-07-13T15:52:19;3.10;;;1.42;;
64235;SDS011;50564;47.402;9.740;2023-07-13T15:57:22;3.80;;;2.00;;
64235;SDS011;50564;47.402;9.740;2023-07-13T16:02:23;4.07;;;2.38;;
64235;SDS011;50564;47.402;9.740;2023-07-13T16:07:25;2.60;;;1.70;;
64235;SDS011;50564;47.402;9.740;2023-07-13T16:12:26;2.60;;;1.60;;
64235;SDS011;50564;47.402;9.740;2023-07-13T16:17:27;3.15;;;1.80;;
64235;SDS011;50564;47.402;9.740;2023-07-13T16:22:28;2.97;;;1.80;;
64235;SDS011;50564;47.402;9.740;2023-07-13T16:27:29;3.42;;;1.70;;
64235;SDS011;50564;47.402;9.740;2023-07-13T16:32:30;2.28;;;1.52;;
64235;SDS011;50564;47.402;9.740;2023-07-13T16:37:31;8.55;;;6.88;;
64235;SDS011;50564;47.402;9.740;2023-07-13T16:42:31;3.38;;;2.05;;
64235;SDS011;50564;47.402;9.740;2023-07-13T16:47:32;4.70;;;1.63;;
64235;SDS011;50564;47.402;9.740;2023-07-13T16:52:33;2.20;;;1.55;;
64235;SDS011;50564;47.402;9.740;2023-07-13T16:57:34;2.42;;;1.90;;
64235;SDS011;50564;47.402;9.740;2023-07-13T17:02:37;3.63;;;1.63;;
64235;SDS011;50564;47.402;9.740;2023-07-13T17:07:41;2.67;;;1.50;;
64235;SDS011;50564;47.402;9.740;2023-07-13T17:12:43;3.30;;;1.95;;
64235;SDS011;50564;47.402;9.740;2023-07-13T17:17:47;2.33;;;1.70;;
64235;SDS011;50564;47.402;9.740;2023-07-13T17:22:52;2.75;;;1.77;;
64235;SDS011;50564;47.402;9.740;2023-07-13T17:27:54;3.75;;;1.67;;
64235;SDS011;50564;47.402;9.740;2023-07-13T17:32:56;2.33;;;1.58;;
64235;SDS011;50564;47.402;9.740;2023-07-13T17:37:58;3.42;;;1.95;;
64235;SDS011;50564;47.402;9.740;2023-07-13T17:43:03;2.80;;;1.95;;
64235;SDS011;50564;47.402;9.740;2023-07-13T17:48:09;4.68;;;2.83;;
64235;SDS011;50564;47.402;9.740;2023-07-13T17:53:17;4.78;;;2.13;;
64235;SDS011;50564;47.402;9.740;2023-07-13T17:58:20;2.28;;;1.70;;
64235;SDS011;50564;47.402;9.740;2023-07-13T18:03:25;2.35;;;1.90;;
64235;SDS011;50564;47.402;9.740;2023-07-13T18:08:35;2.60;;;1.80;;
64235;SDS011;50564;47.402;9.740;2023-07-13T18:13:36;3.20;;;1.80;;
64235;SDS011;50564;47.402;9.740;2023-07-13T18:18:40;2.03;;;1.58;;
64235;SDS011;50564;47.402;9.740;2023-07-13T18:23:42;3.97;;;1.90;;
64235;SDS011;50564;47.402;9.740;2023-07-13T18:28:46;3.65;;;2.03;;
64235;SDS011;50564;47.402;9.740;2023-07-13T18:39:22;3.90;;;1.55;;
64235;SDS011;50564;47.402;9.740;2023-07-13T18:44:24;3.90;;;2.00;;
64235;SDS011;50564;47.402;9.740;2023-07-13T18:49:25;3.65;;;2.10;;
64235;SDS011;50564;47.402;9.740;2023-07-13T18:54:27;4.40;;;2.20;;
64235;SDS011;50564;47.402;9.740;2023-07-13T18:59:28;5.00;;;1.90;;
64235;SDS011;50564;47.402;9.740;2023-07-13T19:04:30;2.65;;;1.60;;
64235;SDS011;50564;47.402;9.740;2023-07-13T19:09:32;3.28;;;1.40;;
64235;SDS011;50564;47.402;9.740;2023-07-13T19:14:34;5.90;;;1.77;;
64235;SDS011;50564;47.402;9.740;2023-07-13T19:19:36;2.33;;;1.67;;
64235;SDS011;50564;47.402;9.740;2023-07-13T19:24:37;5.13;;;2.10;;
64235;SDS011;50564;47.402;9.740;2023-07-13T19:29:39;3.83;;;2.13;;
64235;SDS011;50564;47.402;9.740;2023-07-13T19:34:41;5.30;;;2.20;;
64235;SDS011;50564;47.402;9.740;2023-07-13T19:39:43;3.45;;;2.00;;
64235;SDS011;50564;47.402;9.740;2023-07-13T19:44:46;2.85;;;1.67;;
64235;SDS011;50564;47.402;9.740;2023-07-13T19:49:48;4.72;;;2.10;;
64235;SDS011;50564;47.402;9.740;2023-07-13T19:54:51;5.03;;;1.90;;
64235;SDS011;50564;47.402;9.740;2023-07-13T19:59:54;4.25;;;1.90;;
64235;SDS011;50564;47.402;9.740;2023-07-13T20:04:58;3.80;;;1.67;;
64235;SDS011;50564;47.402;9.740;2023-07-13T20:10:19;7.60;;;2.03;;
64235;SDS011;50564;47.402;9.740;2023-07-13T20:15:27;6.63;;;2.10;;
64235;SDS011;50564;47.402;9.740;2023-07-13T20:20:33;3.65;;;1.77;;
64235;SDS011;50564;47.402;9.740;2023-07-13T20:25:38;3.47;;;1.90;;
64235;SDS011;50564;47.402;9.740;2023-07-13T20:30:43;5.20;;;2.00;;
64235;SDS011;50564;47.402;9.740;2023-07-13T20:35:48;2.80;;;1.83;;
64235;SDS011;50564;47.402;9.740;2023-07-13T20:40:49;3.00;;;1.88;;
64235;SDS011;50564;47.402;9.740;2023-07-13T20:45:57;6.57;;;2.78;;
64235;SDS011;50564;47.402;9.740;2023-07-13T20:50:59;3.05;;;1.77;;
64235;SDS011;50564;47.402;9.740;2023-07-13T20:56:01;5.22;;;2.10;;
64235;SDS011;50564;47.402;9.740;2023-07-13T21:01:02;2.78;;;1.73;;
64235;SDS011;50564;47.402;9.740;2023-07-13T21:06:14;3.58;;;1.83;;
64235;SDS011;50564;47.402;9.740;2023-07-13T21:11:17;3.13;;;1.90;;
64235;SDS011;50564;47.402;9.740;2023-07-13T21:16:19;5.05;;;2.72;;
64235;SDS011;50564;47.402;9.740;2023-07-13T21:21:25;2.67;;;1.75;;
64235;SDS011;50564;47.402;9.740;2023-07-13T21:26:25;4.50;;;2.10;;
64235;SDS011;50564;47.402;9.740;2023-07-13T21:31:30;6.28;;;1.77;;
64235;SDS011;50564;47.402;9.740;2023-07-13T21:36:38;5.00;;;2.15;;
64235;SDS011;50564;47.402;9.740;2023-07-13T21:41:39;5.35;;;2.10;;
64235;SDS011;50564;47.402;9.740;2023-07-13T21:46:39;4.15;;;1.70;;
64235;SDS011;50564;47.402;9.740;2023-07-13T21:51:40;3.10;;;1.83;;
64235;SDS011;50564;47.402;9.740;2023-07-13T21:56:41;4.13;;;2.47;;
64235;SDS011;50564;47.402;9.740;2023-07-13T22:01:41;5.07;;;1.88;;
64235;SDS011;50564;47.402;9.740;2023-07-13T22:06:43;8.93;;;2.90;;
64235;SDS011;50564;47.402;9.740;2023-07-13T22:11:44;2.75;;;1.80;;
64235;SDS011;50564;47.402;9.740;2023-07-13T22:16:44;2.85;;;1.70;;
64235;SDS011;50564;47.402;9.740;2023-07-13T22:21:45;3.13;;;1.58;;
64235;SDS011;50564;47.402;9.740;2023-07-13T22:26:49;4.30;;;1.73;;
64235;SDS011;50564;47.402;9.740;2023-07-13T22:31:50;4.13;;;1.63;;
64235;SDS011;50564;47.402;9.740;2023-07-13T22:36:50;3.63;;;2.05;;
64235;SDS011;50564;47.402;9.740;2023-07-13T22:41:51;2.28;;;1.90;;
64235;SDS011;50564;47.402;9.740;2023-07-13T22:46:52;7.38;;;2.17;;
64235;SDS011;50564;47.402;9.740;2023-07-13T22:51:54;3.83;;;1.88;;
64235;SDS011;50564;47.402;9.740;2023-07-13T22:56:55;3.45;;;1.85;;
64235;SDS011;50564;47.402;9.740;2023-07-13T23:01:56;2.95;;;2.00;;
64235;SDS011;50564;47.402;9.740;2023-07-13T23:06:56;4.93;;;2.38;;
64235;SDS011;50564;47.402;9.740;2023-07-13T23:11:58;3.95;;;2.05;;
64235;SDS011;50564;47.402;9.740;2023-07-13T23:16:59;4.10;;;1.80;;
64235;SDS011;50564;47.402;9.740;2023-07-13T23:22:00;4.47;;;2.03;;
64235;SDS011;50564;47.402;9.740;2023-07-13T23:27:01;6.07;;;2.20;;
64235;SDS011;50564;47.402;9.740;2023-07-13T23:32:03;2.92;;;1.95;;
64235;SDS011;50564;47.402;9.740;2023-07-13T23:37:10;5.88;;;2.25;;
64235;SDS011;50564;47.402;9.740;2023-07-13T23:42:15;6.43;;;3.53;;
64235;SDS011;50564;47.402;9.740;2023-07-13T23:47:16;2.90;;;1.80;;
64235;SDS011;50564;47.402;9.740;2023-07-13T23:52:18;2.33;;;1.88;;
64235;SDS011;50564;47.402;9.740;2023-07-13T23:57:19;4.03;;;2.25;;
